createdAt,value
2023-03-15T00:01:54.519Z,0.70
2023-03-15T00:04:21.892Z,0.55
2023-03-15T00:06:49.289Z,0.15
2023-03-15T00:09:16.711Z,0.43
2023-03-15T00:11:44.054Z,0.68
2023-03-15T00:14:11.481Z,0.75
2023-03-15T00:16:38.860Z,0.55
2023-03-15T00:19:06.178Z,0.63
2023-03-15T00:21:34.369Z,0.43
2023-03-15T00:24:01.881Z,0.80
2023-03-15T00:26:29.371Z,0.80
2023-03-15T00:28:56.704Z,0.35
2023-03-15T00:31:25.771Z,0.82
2023-03-15T00:33:54.587Z,0.30
2023-03-15T00:36:24.275Z,1.00
2023-03-15T00:38:56.498Z,0.70
2023-03-15T00:41:24.317Z,0.80
2023-03-15T00:43:52.443Z,0.45
2023-03-15T00:46:20.471Z,0.50
2023-03-15T00:48:49.762Z,0.52
2023-03-15T00:51:21.419Z,0.60
2023-03-15T00:53:51.135Z,0.60
2023-03-15T00:56:22.679Z,0.47
2023-03-15T00:58:52.896Z,0.60
2023-03-15T01:01:23.385Z,0.50
2023-03-15T01:03:51.270Z,0.50
2023-03-15T01:06:21.801Z,0.60
2023-03-15T01:08:49.833Z,0.45
2023-03-15T01:11:24.368Z,0.90
2023-03-15T01:13:53.976Z,0.30
2023-03-15T01:16:22.355Z,0.70
2023-03-15T01:18:51.757Z,0.17
2023-03-15T01:21:22.223Z,0.43
2023-03-15T01:23:50.757Z,0.70
2023-03-15T01:26:21.204Z,0.70
2023-03-15T01:28:48.731Z,0.60
2023-03-15T01:31:22.375Z,0.43
2023-03-15T01:33:49.821Z,0.63
2023-03-15T01:36:17.903Z,0.70
2023-03-15T01:38:45.747Z,0.60
2023-03-15T01:41:15.616Z,0.60
2023-03-15T01:43:47.198Z,0.90
2023-03-15T01:46:24.432Z,0.80
2023-03-15T01:49:22.835Z,0.63
2023-03-15T01:52:10.104Z,0.60
2023-03-15T01:55:02.252Z,1.02
2023-03-15T01:57:36.319Z,0.68
2023-03-15T02:00:15.582Z,0.80
2023-03-15T02:03:08.447Z,0.52
2023-03-15T02:05:46.158Z,0.73
2023-03-15T02:08:19.625Z,0.60
2023-03-15T02:10:51.778Z,0.95
2023-03-15T02:13:24.807Z,0.68
2023-03-15T02:15:56.229Z,1.20
2023-03-15T02:18:36.531Z,1.10
2023-03-15T02:21:31.548Z,0.70
2023-03-15T02:24:05.635Z,0.65
2023-03-15T02:26:53.245Z,1.15
2023-03-15T02:29:23.335Z,0.70
2023-03-15T02:31:51.416Z,0.80
2023-03-15T02:34:18.957Z,0.55
2023-03-15T02:36:46.374Z,0.85
2023-03-15T02:39:21.950Z,0.70
2023-03-15T02:41:59.572Z,0.60
2023-03-15T02:44:39.872Z,0.80
2023-03-15T02:47:13.316Z,0.90
2023-03-15T02:49:44.205Z,0.77
2023-03-15T02:52:13.919Z,0.70
2023-03-15T02:54:43.578Z,0.77
2023-03-15T02:57:15.766Z,0.45
2023-03-15T02:59:44.497Z,1.10
2023-03-15T03:02:13.438Z,0.73
2023-03-15T03:04:42.804Z,0.88
2023-03-15T03:07:10.346Z,0.63
2023-03-15T03:09:54.476Z,0.60
2023-03-15T03:12:23.077Z,1.00
2023-03-15T03:14:50.620Z,1.20
2023-03-15T03:17:21.710Z,0.80
2023-03-15T03:19:49.450Z,0.50
2023-03-15T03:22:24.673Z,1.00
2023-03-15T03:24:52.529Z,0.93
2023-03-15T03:27:20.083Z,0.90
2023-03-15T03:29:48.284Z,0.63
2023-03-15T03:32:16.949Z,0.90
2023-03-15T03:34:48.298Z,0.85
2023-03-15T03:37:20.941Z,0.70
2023-03-15T03:39:59.335Z,0.70
2023-03-15T03:42:26.873Z,0.85
2023-03-15T03:44:54.585Z,0.93
2023-03-15T03:47:23.682Z,0.82
2023-03-15T03:49:51.051Z,0.73
2023-03-15T03:52:18.449Z,0.90
2023-03-15T03:54:47.058Z,0.90
2023-03-15T03:57:14.356Z,0.75
2023-03-15T03:59:42.082Z,1.00
2023-03-15T04:02:10.722Z,1.40
2023-03-15T04:04:41.953Z,0.90
2023-03-15T04:07:17.040Z,0.95
2023-03-15T04:09:44.903Z,1.10
2023-03-15T04:12:12.694Z,1.10
2023-03-15T04:14:42.661Z,1.33
2023-03-15T04:17:12.279Z,1.05
2023-03-15T04:19:39.586Z,0.90
2023-03-15T04:22:10.254Z,1.20
2023-03-15T04:24:52.345Z,1.10
2023-03-15T04:27:41.402Z,1.15
2023-03-15T04:30:30.725Z,1.00
2023-03-15T04:33:09.786Z,1.00
2023-03-15T04:36:02.851Z,1.10
2023-03-15T04:38:41.469Z,1.23
2023-03-15T04:41:11.149Z,0.82
2023-03-15T04:43:57.381Z,0.77
2023-03-15T04:46:36.612Z,0.80
2023-03-15T04:51:52.890Z,0.63
2023-03-15T04:54:39.322Z,1.00
2023-03-15T04:57:25.056Z,1.10
2023-03-15T05:00:15.928Z,0.80
2023-03-15T05:03:03.536Z,0.88
2023-03-15T05:05:46.988Z,1.27
2023-03-15T05:08:24.231Z,0.98
2023-03-15T05:11:01.078Z,1.13
2023-03-15T05:13:39.650Z,0.95
2023-03-15T05:16:36.892Z,1.08
2023-03-15T05:19:19.640Z,1.00
2023-03-15T05:22:25.596Z,1.05
2023-03-15T05:25:13.878Z,1.25
2023-03-15T05:28:04.948Z,1.40
2023-03-15T05:31:02.633Z,1.15
2023-03-15T05:33:55.132Z,1.15
2023-03-15T05:36:25.482Z,1.27
2023-03-15T05:39:12.641Z,1.05
2023-03-15T05:41:56.053Z,1.42
2023-03-15T05:44:53.295Z,0.95
2023-03-15T05:47:59.046Z,1.00
2023-03-15T05:50:53.322Z,0.50
2023-03-15T05:53:47.018Z,1.00
2023-03-15T05:56:43.506Z,0.35
2023-03-15T05:59:42.780Z,1.52
2023-03-15T06:02:19.304Z,0.63
2023-03-15T06:05:00.574Z,0.60
2023-03-15T06:07:28.416Z,0.57
2023-03-15T06:09:55.787Z,0.70
2023-03-15T06:12:23.328Z,0.40
2023-03-15T06:14:51.406Z,0.38
2023-03-15T06:17:18.846Z,0.73
2023-03-15T06:19:46.556Z,0.52
2023-03-15T06:22:13.927Z,0.95
2023-03-15T06:24:48.208Z,1.10
2023-03-15T06:27:15.527Z,0.68
2023-03-15T06:29:42.896Z,1.30
2023-03-15T06:32:10.370Z,0.82
2023-03-15T06:34:40.294Z,0.80
2023-03-15T06:37:07.756Z,0.63
2023-03-15T06:39:35.531Z,0.45
2023-03-15T06:42:04.298Z,0.93
2023-03-15T06:44:33.691Z,0.77
2023-03-15T06:47:05.309Z,0.98
2023-03-15T06:49:32.674Z,0.82
2023-03-15T06:52:01.250Z,1.00
2023-03-15T06:54:29.147Z,0.85
2023-03-15T06:56:57.139Z,0.90
2023-03-15T06:59:24.528Z,1.23
2023-03-15T07:01:51.943Z,0.77
2023-03-15T07:04:19.361Z,1.52
2023-03-15T07:06:46.742Z,0.90
2023-03-15T07:09:14.167Z,1.13
2023-03-15T07:11:41.489Z,1.45
2023-03-15T07:14:08.805Z,1.10
2023-03-15T07:16:36.189Z,1.15
2023-03-15T07:19:04.150Z,1.05
2023-03-15T07:21:31.605Z,1.02
2023-03-15T07:23:58.965Z,1.60
2023-03-15T07:26:26.422Z,1.13
2023-03-15T07:28:53.870Z,1.30
2023-03-15T07:31:21.167Z,1.30
2023-03-15T07:33:48.525Z,1.15
2023-03-15T07:36:15.979Z,0.93
2023-03-15T07:38:43.462Z,1.25
2023-03-15T07:41:10.831Z,1.15
2023-03-15T07:43:41.648Z,1.08
2023-03-15T07:46:14.170Z,0.98
2023-03-15T07:48:41.534Z,0.93
2023-03-15T07:51:08.992Z,1.10
2023-03-15T07:53:36.414Z,0.88
2023-03-15T07:56:04.278Z,1.45
2023-03-15T07:58:31.916Z,1.42
2023-03-15T08:00:59.515Z,1.42
2023-03-15T08:03:27.631Z,0.82
2023-03-15T08:05:56.557Z,1.00
2023-03-15T08:08:23.930Z,1.65
2023-03-15T08:10:51.337Z,1.75
2023-03-15T08:13:18.755Z,1.08
2023-03-15T08:15:47.506Z,1.08
2023-03-15T08:18:15.000Z,0.85
2023-03-15T08:20:42.434Z,1.27
2023-03-15T08:23:10.330Z,1.02
2023-03-15T08:25:40.853Z,1.30
2023-03-15T08:28:08.572Z,1.15
2023-03-15T08:30:36.252Z,0.77
2023-03-15T08:33:04.011Z,1.45
2023-03-15T08:35:34.258Z,1.05
2023-03-15T08:38:02.746Z,0.85
2023-03-15T08:40:30.745Z,1.40
2023-03-15T08:42:58.262Z,1.45
2023-03-15T08:45:26.730Z,0.95
2023-03-15T08:48:01.204Z,1.13
2023-03-15T08:50:31.730Z,1.67
2023-03-15T08:52:59.193Z,1.00
2023-03-15T08:55:26.609Z,1.20
2023-03-15T08:57:54.064Z,1.95
2023-03-15T09:00:23.255Z,0.65
2023-03-15T09:02:55.127Z,0.95
2023-03-15T09:05:23.893Z,0.90
2023-03-15T09:07:53.273Z,0.90
2023-03-15T09:10:22.105Z,0.80
2023-03-15T09:12:52.227Z,1.10
2023-03-15T09:15:19.876Z,1.10
2023-03-15T09:17:50.882Z,1.00
2023-03-15T09:20:21.835Z,1.30
2023-03-15T09:22:57.761Z,0.75
2023-03-15T09:25:26.179Z,1.55
2023-03-15T09:27:53.874Z,1.05
2023-03-15T09:30:21.545Z,0.90
2023-03-15T09:32:49.399Z,1.13
2023-03-15T09:35:19.665Z,1.10
2023-03-15T09:37:48.048Z,1.05
2023-03-15T09:40:30.910Z,0.80
2023-03-15T09:43:07.099Z,1.58
2023-03-15T09:46:08.693Z,0.95
2023-03-15T09:48:50.474Z,0.60
2023-03-15T09:51:39.597Z,0.85
2023-03-15T09:54:23.771Z,1.00
2023-03-15T09:57:04.461Z,0.70
2023-03-15T09:59:39.493Z,0.93
2023-03-15T10:02:27.277Z,0.90
2023-03-15T10:05:24.316Z,0.70
2023-03-15T10:07:52.320Z,1.25
2023-03-15T10:10:24.582Z,0.80
2023-03-15T10:13:22.044Z,1.40
2023-03-15T10:16:02.680Z,1.30
2023-03-15T10:18:46.147Z,1.10
2023-03-15T10:21:34.594Z,1.38
2023-03-15T10:24:05.675Z,1.13
2023-03-15T10:26:37.324Z,1.10
2023-03-15T10:29:15.183Z,0.75
2023-03-15T10:31:49.993Z,1.02
2023-03-15T10:34:17.982Z,1.20
2023-03-15T10:36:50.352Z,0.60
2023-03-15T10:39:18.230Z,0.93
2023-03-15T10:41:48.937Z,0.90
2023-03-15T10:44:36.899Z,0.80
2023-03-15T10:47:21.467Z,0.85
2023-03-15T10:49:50.920Z,0.90
2023-03-15T10:52:45.605Z,1.30
2023-03-15T10:55:26.046Z,1.03
2023-03-15T10:57:59.936Z,1.20
2023-03-15T11:00:31.194Z,1.40
2023-03-15T11:03:23.542Z,0.77
2023-03-15T11:05:56.962Z,1.10
2023-03-15T11:08:37.321Z,0.98
2023-03-15T11:11:05.414Z,1.08
2023-03-15T11:13:35.364Z,0.95
2023-03-15T11:16:15.276Z,0.90
2023-03-15T11:19:12.203Z,0.85
2023-03-15T11:21:41.245Z,0.40
2023-03-15T11:24:27.893Z,0.70
2023-03-15T11:27:01.674Z,1.20
2023-03-15T11:29:37.810Z,0.52
2023-03-15T11:32:21.443Z,0.80
2023-03-15T11:35:01.276Z,1.02
2023-03-15T11:38:15.408Z,0.82
2023-03-15T11:40:48.162Z,0.93
2023-03-15T11:43:29.765Z,0.85
2023-03-15T11:46:08.830Z,0.35
2023-03-15T11:48:48.447Z,0.85
2023-03-15T11:51:16.380Z,0.80
2023-03-15T11:53:47.702Z,0.85
2023-03-15T11:56:26.020Z,0.45
2023-03-15T11:59:10.859Z,1.20
2023-03-15T12:01:49.671Z,1.00
2023-03-15T12:04:36.736Z,1.08
2023-03-15T12:07:07.236Z,0.52
2023-03-15T12:09:37.283Z,0.70
2023-03-15T12:12:24.942Z,0.70
2023-03-15T12:15:15.046Z,0.63
2023-03-15T12:17:44.341Z,0.70
2023-03-15T12:20:14.538Z,1.33
2023-03-15T12:22:55.793Z,0.70
2023-03-15T12:25:58.798Z,1.05
2023-03-15T12:28:35.588Z,0.80
2023-03-15T12:31:07.002Z,1.00
2023-03-15T12:33:54.224Z,1.15
2023-03-15T12:36:35.728Z,0.95
2023-03-15T12:39:18.156Z,0.60
2023-03-15T12:41:48.298Z,0.82
2023-03-15T12:44:41.036Z,0.93
2023-03-15T12:47:10.934Z,1.02
2023-03-15T12:49:43.024Z,1.05
2023-03-15T12:52:16.406Z,0.93
2023-03-15T12:54:43.685Z,1.10
2023-03-15T12:57:38.288Z,0.60
2023-03-15T13:00:16.748Z,0.85
2023-03-15T13:03:05.791Z,0.40
2023-03-15T13:06:03.476Z,0.50
2023-03-15T13:08:57.359Z,1.33
2023-03-15T13:11:37.153Z,0.73
2023-03-15T13:14:26.225Z,0.57
2023-03-15T13:17:29.391Z,1.40
2023-03-15T13:20:13.724Z,0.73
2023-03-15T13:22:56.036Z,1.40
2023-03-15T13:25:41.967Z,0.70
2023-03-15T13:28:29.123Z,0.93
2023-03-15T13:30:56.800Z,0.60
2023-03-15T13:33:27.455Z,0.82
2023-03-15T13:35:56.445Z,0.52
2023-03-15T13:38:28.125Z,0.43
2023-03-15T13:40:56.872Z,0.65
2023-03-15T13:43:31.114Z,0.85
2023-03-15T13:46:00.131Z,1.02
2023-03-15T13:48:34.026Z,0.80
2023-03-15T13:51:19.164Z,0.70
2023-03-15T13:56:48.922Z,0.88
2023-03-15T13:59:17.917Z,1.10
2023-03-15T14:01:45.565Z,1.08
2023-03-15T14:04:17.398Z,1.10
2023-03-15T14:06:45.760Z,1.00
2023-03-15T14:09:26.016Z,0.93
2023-03-15T14:12:05.413Z,0.82
2023-03-15T14:14:36.362Z,1.15
2023-03-15T14:17:18.398Z,1.27
2023-03-15T14:19:54.537Z,1.08
2023-03-15T14:22:22.314Z,0.95
2023-03-15T14:24:52.150Z,0.60
2023-03-15T14:27:22.683Z,1.10
2023-03-15T14:29:54.422Z,0.77
2023-03-15T14:32:30.071Z,1.10
2023-03-15T14:35:06.756Z,1.15
2023-03-15T14:37:41.395Z,1.00
2023-03-15T14:42:50.845Z,0.98
2023-03-15T14:45:19.376Z,1.25
2023-03-15T14:48:05.452Z,0.95
2023-03-15T14:50:37.424Z,0.80
2023-03-15T14:53:07.312Z,0.88
2023-03-15T14:55:36.867Z,0.80
2023-03-15T14:58:26.529Z,1.20
2023-03-15T15:00:55.946Z,0.90
2023-03-15T15:03:32.541Z,0.93
2023-03-15T15:06:01.691Z,1.02
2023-03-15T15:08:31.200Z,0.95
2023-03-15T15:10:58.934Z,1.10
2023-03-15T15:13:29.160Z,1.00
2023-03-15T15:15:57.330Z,1.20
2023-03-15T15:18:27.532Z,0.75
2023-03-15T15:20:56.605Z,1.13
2023-03-15T15:23:27.818Z,1.23
2023-03-15T15:26:01.513Z,1.10
2023-03-15T15:28:35.798Z,1.15
2023-03-15T15:31:05.430Z,1.30
2023-03-15T15:33:33.936Z,1.10
2023-03-15T15:36:02.217Z,1.00
2023-03-15T15:38:34.852Z,1.30
2023-03-15T15:41:02.287Z,0.93
2023-03-15T15:43:31.722Z,1.30
2023-03-15T15:46:00.556Z,0.98
2023-03-15T15:48:27.930Z,0.80
2023-03-15T15:50:55.674Z,1.23
2023-03-15T15:53:23.385Z,1.00
2023-03-15T15:55:50.873Z,1.17
2023-03-15T15:58:18.363Z,1.02
2023-03-15T16:00:45.868Z,0.90
2023-03-15T16:03:17.286Z,1.10
2023-03-15T16:05:44.762Z,0.90
2023-03-15T16:08:21.838Z,0.63
2023-03-15T16:10:49.414Z,0.70
2023-03-15T16:13:16.845Z,0.90
2023-03-15T16:15:44.349Z,0.65
2023-03-15T16:18:12.818Z,0.70
2023-03-15T16:20:41.278Z,0.88
2023-03-15T16:23:19.460Z,1.10
2023-03-15T16:25:50.182Z,0.80
2023-03-15T16:28:17.652Z,1.00
2023-03-15T16:30:46.868Z,0.82
2023-03-15T16:33:17.497Z,0.88
2023-03-15T16:35:46.038Z,0.90
2023-03-15T16:38:23.978Z,1.00
2023-03-15T16:40:53.261Z,1.23
2023-03-15T16:43:20.764Z,0.88
2023-03-15T16:45:48.727Z,0.90
2023-03-15T16:48:16.064Z,1.20
2023-03-15T16:50:44.226Z,0.80
2023-03-15T16:53:13.199Z,1.10
2023-03-15T16:55:40.978Z,0.82
2023-03-15T16:58:18.153Z,0.80
2023-03-15T17:00:48.383Z,1.15
2023-03-15T17:03:17.603Z,0.88
2023-03-15T17:05:47.765Z,1.13
2023-03-15T17:08:21.347Z,1.20
2023-03-15T17:10:49.486Z,1.10
2023-03-15T17:13:27.002Z,1.27
2023-03-15T17:15:54.609Z,1.02
2023-03-15T17:18:23.968Z,1.17
2023-03-15T17:20:51.587Z,1.50
2023-03-15T17:23:21.260Z,0.93
2023-03-15T17:25:49.502Z,1.23
2023-03-15T17:28:17.969Z,1.30
2023-03-15T17:30:45.618Z,1.20
2023-03-15T17:33:13.309Z,1.50
2023-03-15T17:35:45.053Z,1.33
2023-03-15T17:38:18.736Z,1.70
2023-03-15T17:40:46.427Z,1.50
2023-03-15T17:43:15.750Z,1.45
2023-03-15T17:45:44.027Z,1.48
2023-03-15T17:48:11.576Z,1.10
2023-03-15T17:50:42.068Z,1.25
2023-03-15T17:53:18.764Z,1.70
2023-03-15T17:55:48.111Z,1.25
2023-03-15T17:58:21.888Z,1.48
2023-03-15T18:00:54.978Z,1.45
2023-03-15T18:03:24.224Z,1.33
2023-03-15T18:05:52.155Z,1.13
2023-03-15T18:08:21.532Z,1.27
2023-03-15T18:10:51.158Z,1.10
2023-03-15T18:13:21.661Z,1.40
2023-03-15T18:15:50.600Z,1.45
2023-03-15T18:18:19.568Z,1.17
2023-03-15T18:20:49.696Z,1.60
2023-03-15T18:23:18.595Z,2.00
2023-03-15T18:25:46.630Z,1.58
2023-03-15T18:28:14.414Z,1.73
2023-03-15T18:30:42.504Z,1.60
2023-03-15T18:33:11.730Z,1.50
2023-03-15T18:35:39.322Z,1.92
2023-03-15T18:38:06.864Z,2.20
2023-03-15T18:40:34.832Z,1.75
2023-03-15T18:43:04.205Z,1.83
2023-03-15T18:45:34.306Z,2.00
2023-03-15T18:48:01.852Z,1.92
2023-03-15T18:50:29.612Z,2.13
2023-03-15T18:52:57.996Z,2.40
2023-03-15T18:55:26.779Z,2.35
2023-03-15T18:57:55.249Z,2.10
2023-03-15T19:00:29.387Z,2.50
2023-03-15T19:02:59.199Z,2.13
2023-03-15T19:05:27.899Z,2.58
2023-03-15T19:07:55.374Z,2.67
2023-03-15T19:10:24.412Z,2.60
2023-03-15T19:12:53.157Z,2.35
2023-03-15T19:15:22.267Z,3.03
2023-03-15T19:17:54.427Z,2.60
2023-03-15T19:20:23.591Z,2.45
2023-03-15T19:22:51.812Z,2.42
2023-03-15T19:25:19.697Z,2.67
2023-03-15T19:27:47.170Z,2.30
2023-03-15T19:30:18.931Z,2.47
2023-03-15T19:32:48.089Z,2.65
2023-03-15T19:35:17.645Z,2.75
2023-03-15T19:37:46.078Z,2.13
2023-03-15T19:40:15.545Z,2.78
2023-03-15T19:42:43.588Z,2.60
2023-03-15T19:45:12.285Z,2.42
2023-03-15T19:47:40.516Z,2.70
2023-03-15T19:50:08.830Z,2.20
2023-03-15T19:52:38.726Z,2.25
2023-03-15T19:55:08.199Z,2.35
2023-03-15T19:57:35.590Z,2.65
2023-03-15T20:00:04.789Z,2.47
2023-03-15T20:02:33.370Z,2.70
2023-03-15T20:05:00.715Z,2.50
2023-03-15T20:07:28.111Z,2.22
2023-03-15T20:09:55.481Z,2.60
2023-03-15T20:12:22.809Z,2.60
2023-03-15T20:14:50.255Z,2.33
2023-03-15T20:17:20.440Z,2.92
2023-03-15T20:19:47.818Z,2.70
2023-03-15T20:22:15.226Z,3.05
2023-03-15T20:24:44.186Z,2.60
2023-03-15T20:27:11.683Z,2.65
2023-03-15T20:29:39.119Z,2.85
2023-03-15T20:32:06.867Z,3.30
2023-03-15T20:34:35.035Z,2.83
2023-03-15T20:37:02.585Z,2.50
2023-03-15T20:39:30.040Z,2.53
2023-03-15T20:41:57.520Z,3.05
2023-03-15T20:44:25.814Z,3.25
2023-03-15T20:46:56.690Z,2.70
2023-03-15T20:49:24.184Z,2.80
2023-03-15T20:51:51.669Z,2.72
2023-03-15T20:54:19.226Z,3.15
2023-03-15T20:56:47.236Z,3.00
2023-03-15T20:59:15.058Z,3.13
2023-03-15T21:01:42.959Z,3.22
2023-03-15T21:04:11.499Z,3.83
2023-03-15T21:06:39.372Z,3.35
2023-03-15T21:09:07.303Z,3.15
2023-03-15T21:11:38.074Z,3.42
2023-03-15T21:14:06.030Z,3.67
2023-03-15T21:16:34.031Z,3.55
2023-03-15T21:19:01.944Z,3.80
2023-03-15T21:21:29.986Z,4.07
2023-03-15T21:23:57.972Z,4.07
2023-03-15T21:26:25.892Z,3.55
2023-03-15T21:28:53.785Z,3.45
2023-03-15T21:31:21.839Z,3.70
2023-03-15T21:33:50.919Z,3.80
2023-03-15T21:36:21.413Z,3.85
2023-03-15T21:38:49.483Z,3.72
2023-03-15T21:41:17.428Z,3.45
2023-03-15T21:43:45.411Z,3.28
2023-03-15T21:46:14.342Z,3.55
2023-03-15T21:48:42.597Z,3.67
2023-03-15T21:51:10.477Z,3.72
2023-03-15T21:53:38.510Z,3.30
2023-03-15T21:56:06.712Z,2.97
2023-03-15T21:58:34.200Z,2.95
2023-03-15T22:01:05.691Z,2.85
2023-03-15T22:03:34.532Z,3.20
2023-03-15T22:06:02.264Z,3.17
2023-03-15T22:08:29.707Z,2.85
2023-03-15T22:10:58.832Z,3.30
2023-03-15T22:13:27.142Z,2.85
2023-03-15T22:15:54.973Z,3.30
2023-03-15T22:18:22.892Z,2.95
2023-03-15T22:20:51.229Z,3.65
2023-03-15T22:23:18.652Z,2.90
2023-03-15T22:25:46.408Z,3.00
2023-03-15T22:28:13.903Z,2.45
2023-03-15T22:30:41.813Z,2.95
2023-03-15T22:33:09.718Z,2.75
2023-03-15T22:35:37.052Z,2.75
2023-03-15T22:38:09.952Z,3.00
2023-03-15T22:40:39.470Z,3.15
2023-03-15T22:43:08.154Z,2.63
2023-03-15T22:45:35.953Z,2.90
2023-03-15T22:48:03.734Z,3.00
2023-03-15T22:50:31.324Z,2.90
2023-03-15T22:52:58.844Z,2.70
2023-03-15T22:55:26.202Z,3.20
2023-03-15T22:57:53.956Z,2.72
2023-03-15T23:00:22.567Z,2.90
2023-03-15T23:02:50.043Z,2.88
2023-03-15T23:05:19.627Z,2.83
2023-03-15T23:07:47.715Z,3.38
2023-03-15T23:10:15.798Z,3.17
2023-03-15T23:12:43.380Z,2.55
2023-03-15T23:15:13.267Z,3.20
2023-03-15T23:17:46.906Z,3.70
2023-03-15T23:20:17.214Z,3.30
2023-03-15T23:22:45.744Z,3.25
2023-03-15T23:25:14.834Z,2.67
2023-03-15T23:27:42.614Z,3.13
2023-03-15T23:30:11.269Z,3.20
2023-03-15T23:32:38.866Z,2.95
2023-03-15T23:35:09.071Z,3.03
2023-03-15T23:37:36.463Z,2.67
2023-03-15T23:40:11.480Z,3.35
2023-03-15T23:42:38.836Z,3.78
2023-03-15T23:45:06.882Z,3.10
2023-03-15T23:47:34.306Z,3.03
2023-03-15T23:50:04.728Z,3.58
2023-03-15T23:52:32.079Z,2.58
2023-03-15T23:54:59.366Z,2.80
2023-03-15T23:57:27.510Z,3.75
2023-03-15T23:59:54.812Z,2.88
